Terminal Aerodrome Forecast
Issued by NWS

Home | Current Version | Previous Version | Text Only | Print | Product List | Glossary On
Versions: 1 2 3 4 5 6 7 8 9 10 11 12 13 14 15 16 17 18 19 20 21
116
FTUS41 KBTV 060531
TAFMSS
TAF
KMSS 060531Z 0606/0706 VRB03KT P6SM OVC060
     FM061000 22004KT P6SM VCSH OVC045
     FM061100 VRB03KT P6SM VCSH OVC025
      TEMPO 0611/0614 3SM -SN OVC020
     FM062000 23014G22KT P6SM OVC045
     FM070500 24012KT P6SM VCSH BKN040=

USA.gov is the U.S. government's official web portal to all federal, state and local government web resources and services.